sensor_id;sensor_type;location;lat;lon;timestamp;P1;durP1;ratioP1;P2;durP2;ratioP2
39486;SDS011;25173;50.430;18.926;2024-02-26T00:01:27;150.93;;;75.85;;
39486;SDS011;25173;50.430;18.926;2024-02-26T00:04:28;152.43;;;82.65;;
39486;SDS011;25173;50.430;18.926;2024-02-26T00:07:28;174.88;;;94.88;;
39486;SDS011;25173;50.430;18.926;2024-02-26T00:10:29;169.07;;;90.88;;
39486;SDS011;25173;50.430;18.926;2024-02-26T00:13:30;164.90;;;88.32;;
39486;SDS011;25173;50.430;18.926;2024-02-26T00:16:30;157.30;;;81.93;;
39486;SDS011;25173;50.430;18.926;2024-02-26T00:19:31;100.72;;;51.35;;
39486;SDS011;25173;50.430;18.926;2024-02-26T00:22:32;156.48;;;81.00;;
39486;SDS011;25173;50.430;18.926;2024-02-26T00:25:33;115.40;;;61.15;;
39486;SDS011;25173;50.430;18.926;2024-02-26T00:28:33;113.97;;;61.22;;
39486;SDS011;25173;50.430;18.926;2024-02-26T00:31:34;130.70;;;71.53;;
39486;SDS011;25173;50.430;18.926;2024-02-26T00:34:37;114.28;;;61.20;;
39486;SDS011;25173;50.430;18.926;2024-02-26T00:37:37;93.32;;;48.83;;
39486;SDS011;25173;50.430;18.926;2024-02-26T00:40:38;78.03;;;41.67;;
39486;SDS011;25173;50.430;18.926;2024-02-26T00:43:39;78.72;;;43.20;;
39486;SDS011;25173;50.430;18.926;2024-02-26T00:46:42;89.93;;;47.15;;
39486;SDS011;25173;50.430;18.926;2024-02-26T00:49:43;71.35;;;40.97;;
39486;SDS011;25173;50.430;18.926;2024-02-26T00:52:44;97.22;;;51.28;;
39486;SDS011;25173;50.430;18.926;2024-02-26T00:55:44;80.20;;;44.88;;
39486;SDS011;25173;50.430;18.926;2024-02-26T00:58:45;97.85;;;53.38;;
39486;SDS011;25173;50.430;18.926;2024-02-26T01:01:45;81.00;;;44.75;;
39486;SDS011;25173;50.430;18.926;2024-02-26T01:04:46;76.97;;;43.28;;
39486;SDS011;25173;50.430;18.926;2024-02-26T01:07:47;82.43;;;44.28;;
39486;SDS011;25173;50.430;18.926;2024-02-26T01:10:47;101.93;;;59.47;;
39486;SDS011;25173;50.430;18.926;2024-02-26T01:13:48;99.63;;;56.25;;
39486;SDS011;25173;50.430;18.926;2024-02-26T01:16:49;80.18;;;46.53;;
39486;SDS011;25173;50.430;18.926;2024-02-26T01:19:50;77.45;;;45.78;;
39486;SDS011;25173;50.430;18.926;2024-02-26T01:22:51;90.90;;;48.10;;
39486;SDS011;25173;50.430;18.926;2024-02-26T01:25:51;107.63;;;58.17;;
39486;SDS011;25173;50.430;18.926;2024-02-26T01:28:52;96.43;;;54.30;;
39486;SDS011;25173;50.430;18.926;2024-02-26T01:31:53;83.43;;;46.03;;
39486;SDS011;25173;50.430;18.926;2024-02-26T01:34:54;72.85;;;39.97;;
39486;SDS011;25173;50.430;18.926;2024-02-26T01:37:55;69.25;;;38.83;;
39486;SDS011;25173;50.430;18.926;2024-02-26T01:40:56;73.10;;;39.28;;
39486;SDS011;25173;50.430;18.926;2024-02-26T01:43:56;60.03;;;35.65;;
39486;SDS011;25173;50.430;18.926;2024-02-26T01:46:57;55.72;;;32.38;;
39486;SDS011;25173;50.430;18.926;2024-02-26T01:49:58;66.85;;;37.88;;
39486;SDS011;25173;50.430;18.926;2024-02-26T01:52:58;64.35;;;38.33;;
39486;SDS011;25173;50.430;18.926;2024-02-26T01:55:59;68.72;;;41.63;;
39486;SDS011;25173;50.430;18.926;2024-02-26T01:59:01;62.72;;;35.55;;
39486;SDS011;25173;50.430;18.926;2024-02-26T02:02:03;57.03;;;33.25;;
39486;SDS011;25173;50.430;18.926;2024-02-26T02:05:05;59.35;;;35.00;;
39486;SDS011;25173;50.430;18.926;2024-02-26T02:08:07;56.65;;;33.10;;
39486;SDS011;25173;50.430;18.926;2024-02-26T02:11:09;61.83;;;35.28;;
39486;SDS011;25173;50.430;18.926;2024-02-26T02:14:11;64.72;;;36.10;;
39486;SDS011;25173;50.430;18.926;2024-02-26T02:17:12;62.45;;;34.20;;
39486;SDS011;25173;50.430;18.926;2024-02-26T02:20:16;64.55;;;36.28;;
39486;SDS011;25173;50.430;18.926;2024-02-26T02:23:20;63.03;;;35.90;;
39486;SDS011;25173;50.430;18.926;2024-02-26T02:26:21;62.38;;;35.78;;
39486;SDS011;25173;50.430;18.926;2024-02-26T02:29:22;60.80;;;32.63;;
39486;SDS011;25173;50.430;18.926;2024-02-26T02:32:23;56.45;;;32.85;;
39486;SDS011;25173;50.430;18.926;2024-02-26T02:35:25;60.00;;;33.08;;
39486;SDS011;25173;50.430;18.926;2024-02-26T02:38:26;54.65;;;30.50;;
39486;SDS011;25173;50.430;18.926;2024-02-26T02:41:27;52.47;;;31.95;;
39486;SDS011;25173;50.430;18.926;2024-02-26T02:44:30;52.03;;;31.65;;
39486;SDS011;25173;50.430;18.926;2024-02-26T02:47:30;60.67;;;33.15;;
39486;SDS011;25173;50.430;18.926;2024-02-26T02:50:31;54.13;;;30.85;;
39486;SDS011;25173;50.430;18.926;2024-02-26T02:53:32;54.05;;;32.42;;
39486;SDS011;25173;50.430;18.926;2024-02-26T02:56:32;53.72;;;32.00;;
39486;SDS011;25173;50.430;18.926;2024-02-26T02:59:33;54.38;;;33.50;;
39486;SDS011;25173;50.430;18.926;2024-02-26T03:02:34;50.80;;;31.08;;
39486;SDS011;25173;50.430;18.926;2024-02-26T03:05:36;56.47;;;32.17;;
39486;SDS011;25173;50.430;18.926;2024-02-26T03:08:36;60.95;;;33.45;;
39486;SDS011;25173;50.430;18.926;2024-02-26T03:11:39;52.30;;;31.13;;
39486;SDS011;25173;50.430;18.926;2024-02-26T03:14:40;61.70;;;33.53;;
39486;SDS011;25173;50.430;18.926;2024-02-26T03:17:41;64.88;;;33.33;;
39486;SDS011;25173;50.430;18.926;2024-02-26T03:20:42;55.05;;;31.73;;
39486;SDS011;25173;50.430;18.926;2024-02-26T03:23:42;52.97;;;30.60;;
39486;SDS011;25173;50.430;18.926;2024-02-26T03:26:43;58.45;;;32.75;;
39486;SDS011;25173;50.430;18.926;2024-02-26T03:29:43;52.05;;;30.17;;
39486;SDS011;25173;50.430;18.926;2024-02-26T03:32:44;47.95;;;29.90;;
39486;SDS011;25173;50.430;18.926;2024-02-26T03:35:45;54.05;;;33.03;;
39486;SDS011;25173;50.430;18.926;2024-02-26T03:38:46;50.10;;;30.55;;
39486;SDS011;25173;50.430;18.926;2024-02-26T03:41:47;48.83;;;29.23;;
39486;SDS011;25173;50.430;18.926;2024-02-26T03:44:48;50.92;;;31.35;;
39486;SDS011;25173;50.430;18.926;2024-02-26T03:47:48;54.92;;;32.53;;
39486;SDS011;25173;50.430;18.926;2024-02-26T03:50:49;75.55;;;39.13;;
39486;SDS011;25173;50.430;18.926;2024-02-26T03:53:49;63.58;;;32.08;;
39486;SDS011;25173;50.430;18.926;2024-02-26T03:56:50;48.22;;;28.10;;
39486;SDS011;25173;50.430;18.926;2024-02-26T03:59:51;51.55;;;29.48;;
39486;SDS011;25173;50.430;18.926;2024-02-26T04:02:51;58.83;;;30.77;;
39486;SDS011;25173;50.430;18.926;2024-02-26T04:05:52;82.30;;;36.72;;
39486;SDS011;25173;50.430;18.926;2024-02-26T04:08:53;91.72;;;40.70;;
39486;SDS011;25173;50.430;18.926;2024-02-26T04:11:53;100.18;;;42.50;;
39486;SDS011;25173;50.430;18.926;2024-02-26T04:14:54;66.47;;;31.95;;
39486;SDS011;25173;50.430;18.926;2024-02-26T04:17:54;79.00;;;34.92;;
39486;SDS011;25173;50.430;18.926;2024-02-26T04:20:55;93.85;;;39.13;;
39486;SDS011;25173;50.430;18.926;2024-02-26T04:23:57;76.47;;;35.35;;
39486;SDS011;25173;50.430;18.926;2024-02-26T04:27:01;37.53;;;21.70;;
39486;SDS011;25173;50.430;18.926;2024-02-26T04:30:01;44.53;;;23.70;;
39486;SDS011;25173;50.430;18.926;2024-02-26T04:33:04;47.17;;;22.70;;
39486;SDS011;25173;50.430;18.926;2024-02-26T04:36:05;40.75;;;21.25;;
39486;SDS011;25173;50.430;18.926;2024-02-26T04:39:07;42.45;;;22.70;;
39486;SDS011;25173;50.430;18.926;2024-02-26T04:42:08;53.90;;;25.58;;
39486;SDS011;25173;50.430;18.926;2024-02-26T04:45:14;48.88;;;26.23;;
39486;SDS011;25173;50.430;18.926;2024-02-26T04:48:15;47.58;;;27.23;;
39486;SDS011;25173;50.430;18.926;2024-02-26T04:51:15;61.35;;;32.35;;
39486;SDS011;25173;50.430;18.926;2024-02-26T04:54:16;59.58;;;31.48;;
39486;SDS011;25173;50.430;18.926;2024-02-26T04:57:17;56.60;;;32.05;;
39486;SDS011;25173;50.430;18.926;2024-02-26T05:00:18;47.75;;;28.15;;
39486;SDS011;25173;50.430;18.926;2024-02-26T05:03:20;51.92;;;28.63;;
39486;SDS011;25173;50.430;18.926;2024-02-26T05:06:20;48.33;;;29.25;;
39486;SDS011;25173;50.430;18.926;2024-02-26T05:09:21;51.03;;;29.98;;
39486;SDS011;25173;50.430;18.926;2024-02-26T05:12:22;66.13;;;39.03;;
39486;SDS011;25173;50.430;18.926;2024-02-26T05:15:22;58.70;;;34.65;;
39486;SDS011;25173;50.430;18.926;2024-02-26T05:18:23;55.00;;;33.45;;
39486;SDS011;25173;50.430;18.926;2024-02-26T05:21:24;55.03;;;29.85;;
39486;SDS011;25173;50.430;18.926;2024-02-26T05:24:24;52.72;;;30.83;;
39486;SDS011;25173;50.430;18.926;2024-02-26T05:27:25;54.45;;;33.22;;
39486;SDS011;25173;50.430;18.926;2024-02-26T05:30:26;59.22;;;33.45;;
39486;SDS011;25173;50.430;18.926;2024-02-26T05:33:28;57.88;;;35.45;;
39486;SDS011;25173;50.430;18.926;2024-02-26T05:36:29;70.45;;;37.47;;
39486;SDS011;25173;50.430;18.926;2024-02-26T05:39:33;80.65;;;42.83;;
39486;SDS011;25173;50.430;18.926;2024-02-26T05:42:34;70.82;;;39.70;;
39486;SDS011;25173;50.430;18.926;2024-02-26T05:45:34;75.82;;;42.50;;
39486;SDS011;25173;50.430;18.926;2024-02-26T05:48:35;81.25;;;44.13;;
39486;SDS011;25173;50.430;18.926;2024-02-26T05:51:35;80.22;;;42.00;;
39486;SDS011;25173;50.430;18.926;2024-02-26T05:54:36;87.47;;;47.55;;
39486;SDS011;25173;50.430;18.926;2024-02-26T05:57:37;82.50;;;43.95;;
39486;SDS011;25173;50.430;18.926;2024-02-26T06:00:37;95.03;;;51.65;;
39486;SDS011;25173;50.430;18.926;2024-02-26T06:03:38;104.78;;;56.95;;
39486;SDS011;25173;50.430;18.926;2024-02-26T06:06:39;108.25;;;59.83;;
39486;SDS011;25173;50.430;18.926;2024-02-26T06:09:40;102.88;;;57.38;;
39486;SDS011;25173;50.430;18.926;2024-02-26T06:12:41;103.72;;;62.40;;
39486;SDS011;25173;50.430;18.926;2024-02-26T06:15:42;112.15;;;66.07;;
39486;SDS011;25173;50.430;18.926;2024-02-26T06:18:42;114.47;;;63.53;;
39486;SDS011;25173;50.430;18.926;2024-02-26T06:21:43;103.03;;;61.88;;
39486;SDS011;25173;50.430;18.926;2024-02-26T06:24:44;100.35;;;58.17;;
39486;SDS011;25173;50.430;18.926;2024-02-26T06:27:44;97.55;;;57.95;;
39486;SDS011;25173;50.430;18.926;2024-02-26T06:30:45;100.00;;;56.03;;
39486;SDS011;25173;50.430;18.926;2024-02-26T06:33:46;90.57;;;54.53;;
39486;SDS011;25173;50.430;18.926;2024-02-26T06:36:47;85.25;;;52.35;;
39486;SDS011;25173;50.430;18.926;2024-02-26T06:39:47;86.10;;;51.20;;
39486;SDS011;25173;50.430;18.926;2024-02-26T06:42:48;74.70;;;44.90;;
39486;SDS011;25173;50.430;18.926;2024-02-26T06:45:50;70.15;;;41.20;;
39486;SDS011;25173;50.430;18.926;2024-02-26T06:48:51;61.17;;;37.33;;
39486;SDS011;25173;50.430;18.926;2024-02-26T06:51:52;55.88;;;35.10;;
39486;SDS011;25173;50.430;18.926;2024-02-26T06:54:53;72.45;;;41.72;;
39486;SDS011;25173;50.430;18.926;2024-02-26T06:57:53;61.60;;;37.35;;
39486;SDS011;25173;50.430;18.926;2024-02-26T07:00:54;68.03;;;40.53;;
39486;SDS011;25173;50.430;18.926;2024-02-26T07:03:55;48.58;;;29.05;;
39486;SDS011;25173;50.430;18.926;2024-02-26T07:06:55;61.28;;;37.97;;
39486;SDS011;25173;50.430;18.926;2024-02-26T07:09:56;65.65;;;37.65;;
39486;SDS011;25173;50.430;18.926;2024-02-26T07:12:57;66.35;;;37.47;;
39486;SDS011;25173;50.430;18.926;2024-02-26T07:15:57;60.03;;;35.70;;
39486;SDS011;25173;50.430;18.926;2024-02-26T07:18:58;69.63;;;40.38;;
39486;SDS011;25173;50.430;18.926;2024-02-26T07:21:58;66.18;;;39.00;;
39486;SDS011;25173;50.430;18.926;2024-02-26T07:25:01;75.43;;;40.33;;
39486;SDS011;25173;50.430;18.926;2024-02-26T07:28:02;74.00;;;40.22;;
39486;SDS011;25173;50.430;18.926;2024-02-26T07:31:03;68.65;;;41.40;;
39486;SDS011;25173;50.430;18.926;2024-02-26T07:34:04;75.20;;;43.88;;
39486;SDS011;25173;50.430;18.926;2024-02-26T07:37:05;75.82;;;43.60;;
39486;SDS011;25173;50.430;18.926;2024-02-26T07:40:07;78.60;;;40.83;;
39486;SDS011;25173;50.430;18.926;2024-02-26T07:43:08;68.63;;;39.40;;
39486;SDS011;25173;50.430;18.926;2024-02-26T07:46:11;64.28;;;37.75;;
39486;SDS011;25173;50.430;18.926;2024-02-26T07:49:12;54.55;;;31.77;;
39486;SDS011;25173;50.430;18.926;2024-02-26T07:52:12;55.97;;;31.63;;
39486;SDS011;25173;50.430;18.926;2024-02-26T07:55:13;57.00;;;30.90;;
39486;SDS011;25173;50.430;18.926;2024-02-26T07:58:14;52.63;;;28.30;;
39486;SDS011;25173;50.430;18.926;2024-02-26T08:01:14;44.45;;;25.88;;
39486;SDS011;25173;50.430;18.926;2024-02-26T08:04:15;40.97;;;24.30;;
39486;SDS011;25173;50.430;18.926;2024-02-26T08:07:16;46.30;;;24.67;;
39486;SDS011;25173;50.430;18.926;2024-02-26T08:10:17;42.95;;;22.45;;
39486;SDS011;25173;50.430;18.926;2024-02-26T08:13:17;20.67;;;11.40;;
39486;SDS011;25173;50.430;18.926;2024-02-26T08:16:18;17.10;;;9.85;;
39486;SDS011;25173;50.430;18.926;2024-02-26T08:19:18;17.58;;;10.90;;
39486;SDS011;25173;50.430;18.926;2024-02-26T08:22:19;18.67;;;10.95;;
39486;SDS011;25173;50.430;18.926;2024-02-26T08:25:20;19.95;;;11.38;;
39486;SDS011;25173;50.430;18.926;2024-02-26T08:28:20;22.83;;;13.10;;
39486;SDS011;25173;50.430;18.926;2024-02-26T08:31:21;24.38;;;13.32;;
39486;SDS011;25173;50.430;18.926;2024-02-26T08:34:23;20.00;;;10.70;;
39486;SDS011;25173;50.430;18.926;2024-02-26T08:37:24;26.05;;;9.65;;
39486;SDS011;25173;50.430;18.926;2024-02-26T08:40:25;17.42;;;9.23;;
39486;SDS011;25173;50.430;18.926;2024-02-26T08:43:25;16.73;;;9.05;;
39486;SDS011;25173;50.430;18.926;2024-02-26T08:46:26;15.95;;;8.85;;
39486;SDS011;25173;50.430;18.926;2024-02-26T08:49:26;20.63;;;8.73;;
39486;SDS011;25173;50.430;18.926;2024-02-26T08:52:27;21.30;;;10.10;;
39486;SDS011;25173;50.430;18.926;2024-02-26T08:55:28;20.67;;;11.82;;
39486;SDS011;25173;50.430;18.926;2024-02-26T08:58:28;16.98;;;9.50;;
39486;SDS011;25173;50.430;18.926;2024-02-26T09:01:30;18.33;;;9.88;;
39486;SDS011;25173;50.430;18.926;2024-02-26T09:04:32;18.80;;;9.43;;
39486;SDS011;25173;50.430;18.926;2024-02-26T09:07:33;17.67;;;7.32;;
39486;SDS011;25173;50.430;18.926;2024-02-26T09:10:34;12.25;;;6.45;;
39486;SDS011;25173;50.430;18.926;2024-02-26T09:13:34;15.05;;;7.75;;
39486;SDS011;25173;50.430;18.926;2024-02-26T09:16:35;18.48;;;9.88;;
39486;SDS011;25173;50.430;18.926;2024-02-26T09:19:36;19.90;;;8.75;;
39486;SDS011;25173;50.430;18.926;2024-02-26T09:22:38;17.95;;;9.18;;
39486;SDS011;25173;50.430;18.926;2024-02-26T09:25:38;21.05;;;9.05;;
39486;SDS011;25173;50.430;18.926;2024-02-26T09:28:39;11.77;;;7.22;;
39486;SDS011;25173;50.430;18.926;2024-02-26T09:31:39;13.38;;;7.50;;
39486;SDS011;25173;50.430;18.926;2024-02-26T09:34:41;9.77;;;5.57;;
39486;SDS011;25173;50.430;18.926;2024-02-26T09:37:42;11.20;;;5.95;;
39486;SDS011;25173;50.430;18.926;2024-02-26T09:40:44;11.43;;;6.60;;
39486;SDS011;25173;50.430;18.926;2024-02-26T09:43:45;13.23;;;7.28;;
39486;SDS011;25173;50.430;18.926;2024-02-26T09:46:49;12.32;;;7.40;;
39486;SDS011;25173;50.430;18.926;2024-02-26T09:49:52;10.43;;;5.32;;
39486;SDS011;25173;50.430;18.926;2024-02-26T09:52:54;7.60;;;5.28;;
39486;SDS011;25173;50.430;18.926;2024-02-26T09:55:58;10.82;;;6.03;;
39486;SDS011;25173;50.430;18.926;2024-02-26T09:58:59;9.07;;;5.05;;
39486;SDS011;25173;50.430;18.926;2024-02-26T10:02:00;12.30;;;5.78;;
39486;SDS011;25173;50.430;18.926;2024-02-26T10:05:03;9.80;;;6.63;;
39486;SDS011;25173;50.430;18.926;2024-02-26T10:08:05;16.38;;;5.97;;
39486;SDS011;25173;50.430;18.926;2024-02-26T10:11:08;8.10;;;5.13;;
39486;SDS011;25173;50.430;18.926;2024-02-26T10:14:10;10.93;;;4.78;;
39486;SDS011;25173;50.430;18.926;2024-02-26T10:17:12;8.35;;;5.13;;
39486;SDS011;25173;50.430;18.926;2024-02-26T10:20:16;5.43;;;3.30;;
39486;SDS011;25173;50.430;18.926;2024-02-26T10:23:18;4.72;;;2.80;;
39486;SDS011;25173;50.430;18.926;2024-02-26T10:26:19;5.47;;;3.83;;
39486;SDS011;25173;50.430;18.926;2024-02-26T10:29:21;5.68;;;3.58;;
39486;SDS011;25173;50.430;18.926;2024-02-26T10:32:24;5.72;;;3.60;;
39486;SDS011;25173;50.430;18.926;2024-02-26T10:35:24;7.22;;;3.95;;
39486;SDS011;25173;50.430;18.926;2024-02-26T10:38:26;7.53;;;3.60;;
39486;SDS011;25173;50.430;18.926;2024-02-26T10:41:26;6.18;;;3.15;;
39486;SDS011;25173;50.430;18.926;2024-02-26T10:44:27;7.55;;;3.97;;
39486;SDS011;25173;50.430;18.926;2024-02-26T10:47:28;8.13;;;3.05;;
39486;SDS011;25173;50.430;18.926;2024-02-26T10:50:29;11.00;;;6.22;;
39486;SDS011;25173;50.430;18.926;2024-02-26T10:53:30;7.22;;;4.45;;
39486;SDS011;25173;50.430;18.926;2024-02-26T10:56:34;8.48;;;5.20;;
39486;SDS011;25173;50.430;18.926;2024-02-26T10:59:35;5.80;;;3.85;;
39486;SDS011;25173;50.430;18.926;2024-02-26T11:02:38;8.82;;;4.32;;
39486;SDS011;25173;50.430;18.926;2024-02-26T11:05:40;6.53;;;2.78;;
39486;SDS011;25173;50.430;18.926;2024-02-26T11:08:43;6.38;;;3.50;;
39486;SDS011;25173;50.430;18.926;2024-02-26T11:11:44;4.50;;;2.78;;
39486;SDS011;25173;50.430;18.926;2024-02-26T11:14:45;3.13;;;2.40;;
39486;SDS011;25173;50.430;18.926;2024-02-26T11:17:46;3.50;;;2.13;;
39486;SDS011;25173;50.430;18.926;2024-02-26T11:20:48;3.42;;;2.40;;
39486;SDS011;25173;50.430;18.926;2024-02-26T11:23:50;4.32;;;2.53;;
39486;SDS011;25173;50.430;18.926;2024-02-26T11:26:52;5.32;;;3.97;;
39486;SDS011;25173;50.430;18.926;2024-02-26T11:29:59;5.85;;;3.30;;
39486;SDS011;25173;50.430;18.926;2024-02-26T11:33:01;2.90;;;2.15;;
39486;SDS011;25173;50.430;18.926;2024-02-26T11:36:10;3.00;;;1.80;;
39486;SDS011;25173;50.430;18.926;2024-02-26T11:39:12;6.93;;;2.70;;
39486;SDS011;25173;50.430;18.926;2024-02-26T11:42:13;5.28;;;3.05;;
39486;SDS011;25173;50.430;18.926;2024-02-26T11:48:43;4.45;;;1.90;;
39486;SDS011;25173;50.430;18.926;2024-02-26T11:51:45;4.72;;;2.58;;
39486;SDS011;25173;50.430;18.926;2024-02-26T11:54:52;10.50;;;5.90;;
39486;SDS011;25173;50.430;18.926;2024-02-26T11:57:53;5.47;;;3.22;;
39486;SDS011;25173;50.430;18.926;2024-02-26T12:00:57;7.53;;;4.05;;
39486;SDS011;25173;50.430;18.926;2024-02-26T12:03:58;3.90;;;2.67;;
39486;SDS011;25173;50.430;18.926;2024-02-26T12:07:02;2.88;;;2.40;;
39486;SDS011;25173;50.430;18.926;2024-02-26T12:10:13;5.60;;;3.13;;
39486;SDS011;25173;50.430;18.926;2024-02-26T12:13:29;5.28;;;2.38;;
39486;SDS011;25173;50.430;18.926;2024-02-26T12:16:37;4.10;;;2.60;;
39486;SDS011;25173;50.430;18.926;2024-02-26T12:19:39;4.13;;;1.92;;
39486;SDS011;25173;50.430;18.926;2024-02-26T12:22:40;3.38;;;2.25;;
39486;SDS011;25173;50.430;18.926;2024-02-26T12:25:41;14.73;;;7.15;;
39486;SDS011;25173;50.430;18.926;2024-02-26T12:28:43;14.10;;;6.95;;
39486;SDS011;25173;50.430;18.926;2024-02-26T12:31:43;12.90;;;5.68;;
39486;SDS011;25173;50.430;18.926;2024-02-26T12:34:44;5.35;;;2.55;;
39486;SDS011;25173;50.430;18.926;2024-02-26T12:37:45;8.38;;;4.22;;
39486;SDS011;25173;50.430;18.926;2024-02-26T12:40:46;5.07;;;3.20;;
39486;SDS011;25173;50.430;18.926;2024-02-26T12:43:49;8.55;;;4.30;;
39486;SDS011;25173;50.430;18.926;2024-02-26T12:46:59;4.30;;;3.05;;
39486;SDS011;25173;50.430;18.926;2024-02-26T12:50:00;6.75;;;3.58;;
39486;SDS011;25173;50.430;18.926;2024-02-26T12:53:01;6.25;;;3.53;;
39486;SDS011;25173;50.430;18.926;2024-02-26T12:56:02;4.35;;;3.30;;
39486;SDS011;25173;50.430;18.926;2024-02-26T12:59:04;7.53;;;3.90;;
39486;SDS011;25173;50.430;18.926;2024-02-26T13:02:06;6.07;;;3.67;;
39486;SDS011;25173;50.430;18.926;2024-02-26T13:05:07;5.15;;;2.83;;
39486;SDS011;25173;50.430;18.926;2024-02-26T13:08:08;3.53;;;2.47;;
39486;SDS011;25173;50.430;18.926;2024-02-26T13:11:09;4.45;;;2.95;;
39486;SDS011;25173;50.430;18.926;2024-02-26T13:14:19;6.00;;;4.25;;
39486;SDS011;25173;50.430;18.926;2024-02-26T13:17:21;6.90;;;3.28;;
39486;SDS011;25173;50.430;18.926;2024-02-26T13:20:25;4.60;;;3.17;;
39486;SDS011;25173;50.430;18.926;2024-02-26T13:23:28;7.13;;;3.78;;
39486;SDS011;25173;50.430;18.926;2024-02-26T13:26:29;7.68;;;3.70;;
39486;SDS011;25173;50.430;18.926;2024-02-26T13:29:30;11.00;;;3.85;;
39486;SDS011;25173;50.430;18.926;2024-02-26T13:32:32;6.18;;;4.03;;
39486;SDS011;25173;50.430;18.926;2024-02-26T13:35:33;6.32;;;4.05;;
39486;SDS011;25173;50.430;18.926;2024-02-26T13:38:35;6.32;;;3.72;;
39486;SDS011;25173;50.430;18.926;2024-02-26T13:41:35;8.73;;;4.82;;
39486;SDS011;25173;50.430;18.926;2024-02-26T13:44:36;7.13;;;3.35;;
39486;SDS011;25173;50.430;18.926;2024-02-26T13:47:39;6.75;;;3.50;;
39486;SDS011;25173;50.430;18.926;2024-02-26T13:50:41;7.05;;;3.78;;
39486;SDS011;25173;50.430;18.926;2024-02-26T13:53:46;8.50;;;4.15;;
39486;SDS011;25173;50.430;18.926;2024-02-26T13:56:47;7.05;;;4.18;;
39486;SDS011;25173;50.430;18.926;2024-02-26T13:59:47;7.25;;;4.50;;
39486;SDS011;25173;50.430;18.926;2024-02-26T14:02:48;9.77;;;3.53;;
39486;SDS011;25173;50.430;18.926;2024-02-26T14:05:50;9.10;;;5.20;;
39486;SDS011;25173;50.430;18.926;2024-02-26T14:08:51;7.00;;;3.47;;
39486;SDS011;25173;50.430;18.926;2024-02-26T14:11:53;6.40;;;4.10;;
39486;SDS011;25173;50.430;18.926;2024-02-26T14:14:54;5.05;;;3.70;;
39486;SDS011;25173;50.430;18.926;2024-02-26T14:17:56;5.60;;;3.85;;
39486;SDS011;25173;50.430;18.926;2024-02-26T14:20:58;7.30;;;3.38;;
39486;SDS011;25173;50.430;18.926;2024-02-26T14:23:58;7.38;;;4.25;;
39486;SDS011;25173;50.430;18.926;2024-02-26T14:26:59;6.28;;;4.40;;
39486;SDS011;25173;50.430;18.926;2024-02-26T14:29:59;15.45;;;7.65;;
39486;SDS011;25173;50.430;18.926;2024-02-26T14:33:00;9.00;;;5.80;;
39486;SDS011;25173;50.430;18.926;2024-02-26T14:36:01;13.07;;;11.68;;
39486;SDS011;25173;50.430;18.926;2024-02-26T14:39:02;11.73;;;8.65;;
39486;SDS011;25173;50.430;18.926;2024-02-26T14:42:03;25.65;;;16.60;;
39486;SDS011;25173;50.430;18.926;2024-02-26T14:45:04;24.90;;;17.40;;
39486;SDS011;25173;50.430;18.926;2024-02-26T14:48:07;18.25;;;11.65;;
39486;SDS011;25173;50.430;18.926;2024-02-26T14:51:08;20.70;;;13.13;;
39486;SDS011;25173;50.430;18.926;2024-02-26T14:54:10;20.27;;;10.32;;
39486;SDS011;25173;50.430;18.926;2024-02-26T14:57:11;31.17;;;14.35;;
39486;SDS011;25173;50.430;18.926;2024-02-26T15:00:13;23.48;;;17.15;;
39486;SDS011;25173;50.430;18.926;2024-02-26T15:03:14;38.20;;;27.90;;
39486;SDS011;25173;50.430;18.926;2024-02-26T15:06:14;23.55;;;10.23;;
39486;SDS011;25173;50.430;18.926;2024-02-26T15:09:15;28.73;;;20.08;;
39486;SDS011;25173;50.430;18.926;2024-02-26T15:12:16;13.35;;;7.78;;
39486;SDS011;25173;50.430;18.926;2024-02-26T15:15:18;14.55;;;7.70;;
39486;SDS011;25173;50.430;18.926;2024-02-26T15:18:18;15.88;;;8.02;;
39486;SDS011;25173;50.430;18.926;2024-02-26T15:21:19;11.60;;;6.78;;
39486;SDS011;25173;50.430;18.926;2024-02-26T15:24:19;14.75;;;7.60;;
39486;SDS011;25173;50.430;18.926;2024-02-26T15:27:20;11.95;;;7.18;;
39486;SDS011;25173;50.430;18.926;2024-02-26T15:30:21;13.63;;;6.88;;
39486;SDS011;25173;50.430;18.926;2024-02-26T15:33:21;9.15;;;6.45;;
39486;SDS011;25173;50.430;18.926;2024-02-26T15:36:22;10.98;;;7.35;;
39486;SDS011;25173;50.430;18.926;2024-02-26T15:39:23;13.63;;;7.88;;
39486;SDS011;25173;50.430;18.926;2024-02-26T15:42:23;12.20;;;7.75;;
39486;SDS011;25173;50.430;18.926;2024-02-26T15:45:25;15.98;;;8.98;;
39486;SDS011;25173;50.430;18.926;2024-02-26T15:48:26;16.35;;;8.13;;
39486;SDS011;25173;50.430;18.926;2024-02-26T15:51:26;15.50;;;9.05;;
39486;SDS011;25173;50.430;18.926;2024-02-26T15:54:27;16.80;;;8.60;;
39486;SDS011;25173;50.430;18.926;2024-02-26T15:57:28;15.65;;;8.75;;
39486;SDS011;25173;50.430;18.926;2024-02-26T16:00:28;13.57;;;8.23;;
39486;SDS011;25173;50.430;18.926;2024-02-26T16:03:29;17.35;;;10.63;;
39486;SDS011;25173;50.430;18.926;2024-02-26T16:06:31;15.07;;;9.95;;
39486;SDS011;25173;50.430;18.926;2024-02-26T16:09:36;20.67;;;11.88;;
39486;SDS011;25173;50.430;18.926;2024-02-26T16:12:41;18.95;;;11.27;;
39486;SDS011;25173;50.430;18.926;2024-02-26T16:15:50;19.25;;;11.02;;
39486;SDS011;25173;50.430;18.926;2024-02-26T16:19:04;21.38;;;10.98;;
39486;SDS011;25173;50.430;18.926;2024-02-26T16:22:08;20.58;;;10.93;;
39486;SDS011;25173;50.430;18.926;2024-02-26T16:25:09;19.55;;;11.90;;
39486;SDS011;25173;50.430;18.926;2024-02-26T16:28:10;19.45;;;11.85;;
39486;SDS011;25173;50.430;18.926;2024-02-26T16:31:10;18.95;;;11.90;;
39486;SDS011;25173;50.430;18.926;2024-02-26T16:34:11;21.08;;;11.65;;
39486;SDS011;25173;50.430;18.926;2024-02-26T16:37:12;20.17;;;11.75;;
39486;SDS011;25173;50.430;18.926;2024-02-26T16:40:14;30.30;;;15.52;;
39486;SDS011;25173;50.430;18.926;2024-02-26T16:43:18;38.28;;;20.73;;
39486;SDS011;25173;50.430;18.926;2024-02-26T16:46:18;42.97;;;23.70;;
39486;SDS011;25173;50.430;18.926;2024-02-26T16:49:20;21.02;;;12.70;;
39486;SDS011;25173;50.430;18.926;2024-02-26T16:52:21;26.13;;;14.85;;
39486;SDS011;25173;50.430;18.926;2024-02-26T16:55:22;19.92;;;12.52;;
39486;SDS011;25173;50.430;18.926;2024-02-26T16:58:24;23.77;;;13.38;;
39486;SDS011;25173;50.430;18.926;2024-02-26T17:01:26;19.25;;;12.32;;
39486;SDS011;25173;50.430;18.926;2024-02-26T17:04:27;56.60;;;28.65;;
39486;SDS011;25173;50.430;18.926;2024-02-26T17:07:30;90.55;;;50.33;;
39486;SDS011;25173;50.430;18.926;2024-02-26T17:10:31;87.63;;;45.88;;
39486;SDS011;25173;50.430;18.926;2024-02-26T17:13:32;74.47;;;40.38;;
39486;SDS011;25173;50.430;18.926;2024-02-26T17:16:34;88.28;;;49.08;;
39486;SDS011;25173;50.430;18.926;2024-02-26T17:19:36;93.55;;;52.53;;
39486;SDS011;25173;50.430;18.926;2024-02-26T17:22:37;63.88;;;39.80;;
39486;SDS011;25173;50.430;18.926;2024-02-26T17:25:37;88.78;;;49.60;;
39486;SDS011;25173;50.430;18.926;2024-02-26T17:28:38;84.50;;;43.58;;
39486;SDS011;25173;50.430;18.926;2024-02-26T17:31:40;93.85;;;45.10;;
39486;SDS011;25173;50.430;18.926;2024-02-26T17:34:42;92.15;;;44.28;;
39486;SDS011;25173;50.430;18.926;2024-02-26T17:37:43;78.57;;;42.90;;